Time;durP1;ratioP1;P1;durP2;ratioP2;P2;SDS_P1;SDS_P2;PMS_P1;PMS_P2;Temp;Humidity;BMP_temperature;BMP_pressure;BME280_temperature;BME280_humidity;BME280_pressure;Samples;Min_cycle;Max_cycle;Signal;HPM_P1;HPM_P2
2023/05/09 00:02:02;;;;;;;9.70;7.53;;;14.50;99.90;;;;;;4952530;28;20042;-71
2023/05/09 00:04:28;;;;;;;8.32;7.53;;;14.50;99.90;;;;;;4971914;28;20100;-71
2023/05/09 00:06:53;;;;;;;7.68;6.88;;;14.50;99.90;;;;;;4954631;28;20093;-72
2023/05/09 00:09:19;;;;;;;7.07;6.47;;;14.50;99.90;;;;;;4971545;28;20131;-72
2023/05/09 00:11:45;;;;;;;7.60;6.90;;;14.40;99.90;;;;;;4987870;28;20043;-71
2023/05/09 00:14:12;;;;;;;8.88;6.55;;;14.30;99.90;;;;;;4971370;28;20046;-71
2023/05/09 00:16:39;;;;;;;7.38;6.68;;;14.30;99.90;;;;;;4988808;28;20050;-71
2023/05/09 00:19:05;;;;;;;7.72;7.10;;;14.20;99.90;;;;;;4971068;28;20128;-71
2023/05/09 00:21:31;;;;;;;11.70;8.43;;;14.20;99.90;;;;;;4988435;28;20485;-72
2023/05/09 00:23:57;;;;;;;8.95;6.97;;;14.20;99.90;;;;;;4987537;28;20078;-71
2023/05/09 00:26:23;;;;;;;6.90;6.25;;;14.20;99.90;;;;;;4971493;28;20051;-72
2023/05/09 00:28:49;;;;;;;7.00;6.30;;;14.10;99.90;;;;;;4971018;28;20057;-71
2023/05/09 00:31:15;;;;;;;5.80;5.20;;;14.10;99.90;;;;;;4970854;28;20050;-71
2023/05/09 00:33:42;;;;;;;7.43;6.72;;;14.00;99.90;;;;;;4955268;28;20050;-71
2023/05/09 00:36:08;;;;;;;7.35;6.65;;;13.90;99.90;;;;;;4970433;28;20077;-72
2023/05/09 00:38:34;;;;;;;8.02;7.25;;;13.90;99.90;;;;;;4971585;28;20082;-71
2023/05/09 00:41:00;;;;;;;14.95;11.15;;;13.80;99.90;;;;;;4954554;28;20051;-71
2023/05/09 00:43:26;;;;;;;12.15;7.80;;;13.70;99.90;;;;;;4954722;28;20080;-72
2023/05/09 00:45:52;;;;;;;10.45;8.43;;;13.70;99.90;;;;;;4970053;28;20129;-71
2023/05/09 00:48:18;;;;;;;9.65;8.00;;;13.60;99.90;;;;;;4971130;28;20516;-72
2023/05/09 00:50:45;;;;;;;8.15;7.32;;;13.60;99.90;;;;;;4970854;28;20092;-72
2023/05/09 00:53:10;;;;;;;9.20;8.18;;;13.60;99.90;;;;;;4988269;28;20104;-72
2023/05/09 00:55:37;;;;;;;10.50;8.90;;;13.50;99.90;;;;;;4954861;28;20078;-71
2023/05/09 00:58:03;;;;;;;11.20;8.25;;;13.60;99.90;;;;;;4987343;28;20043;-72
2023/05/09 01:00:29;;;;;;;11.43;8.88;;;13.60;99.90;;;;;;4954962;28;20061;-71
2023/05/09 01:02:55;;;;;;;8.48;7.53;;;13.60;99.90;;;;;;4969404;28;20042;-72
2023/05/09 01:05:28;;;;;;;9.85;6.95;;;13.60;99.90;;;;;;4970991;28;20401;-71
2023/05/09 01:08:29;;;;;;;7.00;6.03;;;13.70;99.90;;;;;;4970526;28;20062;-72
2023/05/09 01:11:05;;;;;;;8.25;5.55;;;13.60;99.90;;;;;;4969619;28;20077;-72
2023/05/09 01:13:43;;;;;;;5.95;5.45;;;13.70;99.90;;;;;;4970808;28;20137;-72
2023/05/09 01:16:24;;;;;;;6.47;5.20;;;13.70;99.90;;;;;;4986605;28;20042;-72
2023/05/09 01:18:56;;;;;;;5.57;4.90;;;13.70;99.90;;;;;;4971241;28;20531;-72
2023/05/09 03:24:29;;;;;;;11.93;5.57;;;13.30;99.90;;;;;;4986133;23;20058;-72
2023/05/09 03:26:55;;;;;;;5.57;5.07;;;13.30;99.90;;;;;;4944099;28;20047;-71
2023/05/09 03:29:21;;;;;;;5.80;5.30;;;13.30;99.90;;;;;;4972198;28;20060;-71
2023/05/09 03:31:47;;;;;;;6.93;6.07;;;13.30;99.90;;;;;;4971541;28;20050;-71
2023/05/09 03:34:13;;;;;;;6.43;5.75;;;13.40;99.90;;;;;;4972611;28;20057;-71
2023/05/09 03:36:43;;;;;;;7.85;5.60;;;13.30;99.90;;;;;;4970992;28;20054;-71
2023/05/09 03:39:08;;;;;;;6.05;5.53;;;13.30;99.90;;;;;;4973051;28;20048;-71
2023/05/09 03:41:35;;;;;;;7.55;5.85;;;13.30;99.90;;;;;;4987826;28;20042;-71
2023/05/09 03:44:02;;;;;;;6.80;5.68;;;13.30;99.90;;;;;;4992173;28;20092;-71
2023/05/09 03:46:27;;;;;;;5.72;5.22;;;13.30;99.90;;;;;;4991585;28;20064;-72
2023/05/09 03:48:53;;;;;;;6.90;5.88;;;13.30;99.90;;;;;;4992363;28;20046;-71
2023/05/09 03:51:19;;;;;;;5.95;5.35;;;13.30;99.90;;;;;;4959018;28;20076;-71
2023/05/09 03:53:46;;;;;;;7.85;6.05;;;13.40;99.90;;;;;;4990395;28;20065;-72
2023/05/09 03:56:12;;;;;;;7.82;5.85;;;13.30;99.90;;;;;;4990950;28;20057;-72
2023/05/09 03:58:38;;;;;;;6.95;6.13;;;13.30;99.90;;;;;;4991436;28;20518;-71
2023/05/09 04:01:04;;;;;;;7.78;5.70;;;13.30;99.90;;;;;;4975224;28;20050;-72
2023/05/09 04:03:31;;;;;;;6.78;6.00;;;13.30;99.90;;;;;;4974598;28;20046;-71
2023/05/09 04:05:56;;;;;;;7.32;6.20;;;13.30;99.90;;;;;;4991594;28;20420;-71
2023/05/09 04:08:22;;;;;;;7.07;5.60;;;13.30;99.90;;;;;;4992016;28;20045;-72
2023/05/09 04:10:49;;;;;;;6.75;6.10;;;13.30;99.90;;;;;;4990361;28;20068;-71
2023/05/09 04:13:15;;;;;;;6.78;5.95;;;13.30;99.90;;;;;;4975024;28;20048;-72
2023/05/09 04:15:41;;;;;;;9.20;7.88;;;13.20;99.90;;;;;;4989542;28;20128;-72
2023/05/09 04:18:07;;;;;;;7.68;6.88;;;13.30;99.90;;;;;;4991002;28;20045;-71
2023/05/09 04:20:33;;;;;;;7.40;6.68;;;13.30;99.90;;;;;;4991022;28;20045;-72
2023/05/09 04:22:59;;;;;;;11.50;6.93;;;13.20;99.90;;;;;;4991652;28;20108;-72
2023/05/09 04:25:25;;;;;;;10.80;7.40;;;13.20;99.90;;;;;;4990710;28;20057;-71
2023/05/09 04:27:51;;;;;;;10.80;7.18;;;13.20;99.90;;;;;;4990573;28;20120;-72
2023/05/09 04:30:17;;;;;;;13.95;7.50;;;13.20;99.90;;;;;;4990483;28;20048;-71
2023/05/09 04:32:45;;;;;;;10.05;8.25;;;13.20;99.90;;;;;;4990118;28;20049;-71
2023/05/09 04:35:12;;;;;;;10.68;7.75;;;13.30;99.90;;;;;;4992227;28;20054;-71
2023/05/09 04:37:38;;;;;;;10.48;8.35;;;13.30;99.90;;;;;;4990272;28;20065;-71
2023/05/09 04:40:04;;;;;;;10.07;8.40;;;13.30;99.90;;;;;;4990770;28;20049;-71
2023/05/09 04:42:33;;;;;;;10.77;8.80;;;13.40;99.90;;;;;;4989935;28;20042;-71
2023/05/09 04:45:00;;;;;;;10.40;8.85;;;13.30;99.90;;;;;;4974242;28;20049;-71
2023/05/09 04:47:25;;;;;;;12.70;9.65;;;13.40;99.90;;;;;;4990744;28;20077;-71
2023/05/09 04:49:51;;;;;;;12.02;9.10;;;13.50;99.90;;;;;;4989516;28;20093;-72
2023/05/09 04:52:17;;;;;;;14.02;9.13;;;13.50;99.90;;;;;;5008204;28;20458;-72
2023/05/09 04:54:43;;;;;;;12.52;8.98;;;13.50;99.90;;;;;;4990110;28;20042;-72
2023/05/09 04:57:08;;;;;;;9.50;8.50;;;13.50;99.90;;;;;;4989714;28;20096;-71
2023/05/09 04:59:35;;;;;;;9.88;8.60;;;13.60;99.90;;;;;;4989618;28;20136;-71
2023/05/09 05:02:01;;;;;;;9.77;8.75;;;13.60;99.90;;;;;;4974489;28;20053;-71
2023/05/09 05:04:27;;;;;;;10.68;8.50;;;13.50;99.90;;;;;;4991039;28;20510;-71
2023/05/09 05:06:53;;;;;;;12.85;9.15;;;13.50;99.90;;;;;;4990045;28;20042;-72
2023/05/09 05:09:19;;;;;;;10.88;9.15;;;13.60;99.90;;;;;;4989625;28;20045;-72
2023/05/09 05:11:45;;;;;;;15.50;9.40;;;13.60;99.90;;;;;;4989697;28;20049;-71
2023/05/09 05:14:11;;;;;;;13.93;10.27;;;13.60;99.90;;;;;;4991235;28;20081;-72
2023/05/09 05:16:36;;;;;;;14.00;9.93;;;13.60;99.90;;;;;;4990380;28;20060;-72
2023/05/09 05:19:02;;;;;;;12.45;9.63;;;13.60;99.90;;;;;;4959425;28;20112;-72
2023/05/09 05:21:28;;;;;;;11.40;10.30;;;13.70;99.90;;;;;;5007998;28;20045;-72
2023/05/09 05:23:54;;;;;;;11.90;9.88;;;13.70;99.90;;;;;;4990927;28;20049;-71
2023/05/09 05:26:20;;;;;;;12.32;10.48;;;13.70;99.90;;;;;;4985919;28;20112;-72
2023/05/09 05:28:46;;;;;;;16.52;10.50;;;13.80;99.90;;;;;;4984631;28;20524;-72
2023/05/09 05:31:13;;;;;;;14.93;9.65;;;13.80;99.90;;;;;;4970984;28;20096;-71
2023/05/09 05:33:39;;;;;;;12.93;9.60;;;13.80;99.90;;;;;;4984414;28;20034;-71
2023/05/09 05:36:05;;;;;;;13.18;10.65;;;13.90;99.90;;;;;;4986090;28;20042;-72
2023/05/09 05:38:30;;;;;;;14.25;10.10;;;14.00;99.90;;;;;;4967894;28;20046;-71
2023/05/09 05:40:56;;;;;;;14.75;10.77;;;14.10;99.90;;;;;;4986839;28;20506;-71
2023/05/09 05:43:22;;;;;;;12.63;11.32;;;14.20;99.90;;;;;;4984097;28;20050;-72
2023/05/09 05:45:47;;;;;;;12.23;10.93;;;14.30;99.90;;;;;;4984926;28;20050;-71
2023/05/09 05:48:13;;;;;;;12.55;10.35;;;14.30;99.90;;;;;;4985442;28;20061;-72
2023/05/09 05:50:39;;;;;;;13.55;10.98;;;14.30;99.90;;;;;;4967318;28;20048;-71
2023/05/09 05:53:05;;;;;;;13.38;10.35;;;14.30;99.90;;;;;;4969582;28;20049;-72
2023/05/09 05:55:31;;;;;;;11.70;10.52;;;14.40;99.90;;;;;;4984664;28;20053;-71
2023/05/09 05:57:56;;;;;;;13.65;11.52;;;14.40;99.90;;;;;;4986841;28;20050;-72
2023/05/09 06:00:22;;;;;;;14.15;10.88;;;14.40;99.90;;;;;;4981338;28;20133;-71
2023/05/09 06:02:48;;;;;;;12.05;10.75;;;14.50;99.90;;;;;;4985622;28;20058;-72
2023/05/09 06:05:14;;;;;;;13.43;11.73;;;14.50;99.90;;;;;;4984905;28;20546;-71
2023/05/09 06:07:43;;;;;;;13.38;10.90;;;14.50;99.90;;;;;;4984241;28;20049;-71
2023/05/09 06:10:09;;;;;;;11.88;10.60;;;14.50;99.90;;;;;;4969521;28;20082;-72
2023/05/09 06:12:34;;;;;;;14.77;10.48;;;14.60;99.90;;;;;;4968216;28;20046;-72
2023/05/09 06:15:00;;;;;;;13.32;10.30;;;14.50;99.90;;;;;;4988868;28;20054;-71
2023/05/09 06:17:27;;;;;;;13.68;10.55;;;14.60;99.90;;;;;;4971841;28;20129;-71
2023/05/09 06:19:53;;;;;;;14.13;10.70;;;14.60;99.90;;;;;;4988563;28;20166;-72
2023/05/09 06:22:18;;;;;;;13.15;9.82;;;14.60;99.90;;;;;;4972269;28;20038;-71
2023/05/09 06:24:44;;;;;;;13.60;10.73;;;14.60;99.90;;;;;;4987845;28;20077;-72
2023/05/09 06:27:10;;;;;;;14.10;10.90;;;14.60;99.90;;;;;;4988862;28;20055;-72
2023/05/09 06:29:36;;;;;;;12.10;10.82;;;14.70;99.90;;;;;;4971353;28;20456;-71
2023/05/09 06:32:01;;;;;;;13.02;11.23;;;14.70;99.90;;;;;;4988440;28;20058;-71
2023/05/09 06:34:27;;;;;;;14.68;10.50;;;14.70;99.90;;;;;;4987715;28;20042;-71
2023/05/09 06:36:52;;;;;;;15.45;9.93;;;14.70;99.90;;;;;;4989744;28;20096;-72
2023/05/09 06:39:18;;;;;;;11.45;10.30;;;14.80;99.90;;;;;;4986868;28;20077;-72
2023/05/09 06:41:44;;;;;;;14.15;11.10;;;14.70;99.90;;;;;;4987075;28;20053;-71
2023/05/09 06:44:10;;;;;;;11.98;10.60;;;14.80;99.90;;;;;;4987658;28;20150;-71
2023/05/09 06:46:35;;;;;;;15.65;11.10;;;14.80;99.90;;;;;;4986755;28;20073;-72
2023/05/09 06:49:01;;;;;;;14.45;11.23;;;14.80;99.90;;;;;;4977236;28;20046;-72
2023/05/09 06:51:27;;;;;;;13.75;11.18;;;14.90;99.90;;;;;;4988057;28;20062;-71
2023/05/09 06:53:53;;;;;;;13.75;10.75;;;14.90;99.90;;;;;;4988670;28;20101;-72
2023/05/09 06:56:21;;;;;;;13.07;9.82;;;14.90;99.90;;;;;;4984383;28;20042;-71
2023/05/09 06:58:47;;;;;;;18.48;10.35;;;14.90;99.90;;;;;;4987762;28;20425;-71
2023/05/09 07:01:13;;;;;;;12.60;10.07;;;14.90;99.90;;;;;;4987462;28;20051;-71
2023/05/09 07:03:38;;;;;;;17.73;10.35;;;14.90;99.90;;;;;;4987408;28;20065;-72
2023/05/09 07:06:04;;;;;;;13.57;9.68;;;15.00;99.90;;;;;;4972996;28;20554;-71
2023/05/09 07:08:30;;;;;;;11.32;9.88;;;15.10;99.90;;;;;;4986503;28;20582;-72
2023/05/09 07:10:56;;;;;;;21.95;10.13;;;15.10;99.90;;;;;;4989268;28;20424;-72
2023/05/09 07:13:22;;;;;;;11.70;9.80;;;15.20;99.90;;;;;;4981994;28;20050;-72
2023/05/09 07:15:48;;;;;;;13.18;9.63;;;15.30;99.90;;;;;;4971030;28;20246;-72
2023/05/09 07:18:13;;;;;;;12.60;9.95;;;15.40;99.90;;;;;;4970084;28;20042;-72
2023/05/09 07:20:39;;;;;;;14.63;10.43;;;15.60;99.90;;;;;;4971961;28;20084;-71
2023/05/09 07:23:05;;;;;;;13.00;10.43;;;15.80;99.90;;;;;;4988538;28;20392;-72
2023/05/09 07:25:31;;;;;;;13.20;9.80;;;15.90;99.90;;;;;;4986872;28;20069;-72
2023/05/09 07:27:57;;;;;;;13.30;10.73;;;16.00;99.90;;;;;;4988977;28;20459;-72
2023/05/09 07:30:23;;;;;;;12.50;9.52;;;16.00;99.90;;;;;;4969659;28;20072;-71
2023/05/09 07:32:48;;;;;;;13.32;9.75;;;16.00;99.90;;;;;;4988054;28;20053;-72
2023/05/09 07:35:14;;;;;;;13.10;10.07;;;16.00;99.90;;;;;;4971667;28;20607;-74
2023/05/09 07:37:40;;;;;;;12.05;8.88;;;16.00;99.90;;;;;;4988153;28;20121;-71
2023/05/09 07:40:06;;;;;;;13.02;10.52;;;16.00;99.90;;;;;;4986955;28;20092;-72
2023/05/09 07:42:32;;;;;;;12.40;10.23;;;16.00;99.90;;;;;;4986883;28;20046;-72
2023/05/09 07:45:05;;;;;;;13.40;10.55;;;16.00;99.90;;;;;;4973715;28;20082;-72
2023/05/09 07:47:31;;;;;;;12.88;10.55;;;16.00;99.90;;;;;;4971460;28;20050;-72
2023/05/09 07:49:57;;;;;;;15.80;10.65;;;16.00;99.90;;;;;;4988003;28;20420;-72
2023/05/09 07:52:23;;;;;;;14.77;11.98;;;16.00;99.90;;;;;;4986640;28;20046;-72
2023/05/09 07:54:48;;;;;;;15.77;11.35;;;16.00;99.90;;;;;;4987481;28;20100;-72
2023/05/09 07:57:15;;;;;;;14.98;11.48;;;16.00;99.90;;;;;;4986336;28;20073;-72
2023/05/09 07:59:41;;;;;;;16.08;11.88;;;16.00;99.90;;;;;;4970775;28;20125;-73
2023/05/09 08:02:07;;;;;;;15.27;12.15;;;16.00;99.90;;;;;;4971931;28;20396;-72
2023/05/09 08:04:36;;;;;;;18.40;12.10;;;15.90;99.90;;;;;;4971230;28;20053;-73
2023/05/09 08:07:03;;;;;;;19.90;12.35;;;15.90;99.90;;;;;;4988738;28;20532;-72
2023/05/09 08:09:29;;;;;;;17.17;12.38;;;15.80;99.90;;;;;;4987468;28;20531;-72
2023/05/09 08:11:54;;;;;;;17.58;13.05;;;15.90;99.90;;;;;;4987842;28;20115;-72
2023/05/09 08:14:20;;;;;;;16.63;12.25;;;15.90;99.90;;;;;;4986603;28;20124;-73
2023/05/09 08:16:46;;;;;;;20.70;13.32;;;15.80;99.90;;;;;;4970740;28;20035;-72
2023/05/09 08:19:11;;;;;;;16.33;13.25;;;15.80;99.90;;;;;;4970493;28;20073;-72
2023/05/09 08:21:37;;;;;;;22.40;13.23;;;15.80;99.90;;;;;;4970169;28;20050;-72
2023/05/09 08:24:04;;;;;;;21.92;12.32;;;15.80;99.90;;;;;;4986464;28;20057;-73
2023/05/09 08:26:30;;;;;;;19.27;12.93;;;15.80;99.90;;;;;;4984799;28;20058;-72
2023/05/09 08:28:56;;;;;;;19.80;14.10;;;15.80;99.90;;;;;;4986179;28;20433;-73
2023/05/09 08:31:22;;;;;;;22.52;12.77;;;15.80;99.90;;;;;;4985394;28;20061;-73
2023/05/09 08:33:48;;;;;;;16.63;12.52;;;15.80;99.90;;;;;;4986812;28;20078;-73
2023/05/09 08:36:13;;;;;;;17.25;13.77;;;15.80;99.90;;;;;;4969868;28;20050;-73
2023/05/09 08:38:39;;;;;;;17.55;13.57;;;15.80;99.90;;;;;;4969815;28;20158;-73
2023/05/09 08:41:05;;;;;;;18.63;14.32;;;15.80;99.90;;;;;;4970579;28;20054;-72
2023/05/09 08:43:33;;;;;;;22.15;13.38;;;15.80;99.90;;;;;;4970510;28;20550;-73
2023/05/09 08:46:04;;;;;;;18.80;14.20;;;15.80;99.90;;;;;;4987620;28;20152;-73
2023/05/09 08:48:30;;;;;;;29.90;15.88;;;15.80;99.90;;;;;;4986808;28;20117;-73
2023/05/09 08:50:57;;;;;;;26.13;16.17;;;15.80;99.90;;;;;;4971309;28;20496;-73
2023/05/09 08:53:23;;;;;;;25.25;16.45;;;15.80;99.90;;;;;;4970071;28;20060;-73
2023/05/09 08:55:51;;;;;;;30.42;16.77;;;15.80;99.90;;;;;;4986288;28;20062;-73
2023/05/09 08:58:21;;;;;;;29.02;19.20;;;15.80;99.90;;;;;;4987453;28;20150;-73
2023/05/09 09:00:47;;;;;;;37.08;18.83;;;15.80;99.90;;;;;;4970298;28;20046;-73
2023/05/09 09:03:14;;;;;;;31.73;17.27;;;15.80;99.90;;;;;;4987683;28;20089;-72
2023/05/09 09:05:42;;;;;;;31.70;17.40;;;15.80;99.90;;;;;;4968179;28;20497;-73
2023/05/09 09:08:08;;;;;;;39.88;21.10;;;15.80;99.90;;;;;;4986778;28;20058;-73
2023/05/09 09:10:34;;;;;;;39.38;20.48;;;15.90;99.90;;;;;;4984626;28;20050;-73
2023/05/09 09:13:03;;;;;;;37.95;21.25;;;15.90;99.90;;;;;;4970522;28;20489;-73
2023/05/09 09:15:34;;;;;;;43.08;22.30;;;15.90;99.90;;;;;;4986881;28;20396;-72
2023/05/09 09:18:06;;;;;;;40.10;22.15;;;16.00;99.90;;;;;;4986033;28;20450;-73
2023/05/09 09:20:33;;;;;;;40.75;22.88;;;16.10;99.90;;;;;;4986416;28;20144;-72
2023/05/09 09:23:02;;;;;;;50.88;24.05;;;16.20;99.90;;;;;;4968120;28;20042;-74
2023/05/09 09:25:28;;;;;;;50.92;25.70;;;16.40;99.90;;;;;;4954612;28;20046;-73
2023/05/09 09:27:53;;;;;;;54.42;24.48;;;16.60;99.90;;;;;;4985179;28;20058;-73
2023/05/09 09:30:23;;;;;;;46.30;24.52;;;16.80;99.90;;;;;;4947264;28;20405;-73
2023/05/09 09:32:48;;;;;;;56.10;25.25;;;17.00;99.90;;;;;;4976242;28;20054;-73
2023/05/09 09:35:15;;;;;;;52.53;24.25;;;17.10;99.90;;;;;;4981559;28;20057;-73
2023/05/09 09:37:44;;;;;;;48.72;25.15;;;17.20;99.90;;;;;;4981349;28;20046;-73
2023/05/09 09:40:11;;;;;;;45.85;23.58;;;17.40;99.90;;;;;;4967896;28;20054;-73
2023/05/09 09:42:47;;;;;;;45.90;22.30;;;17.50;99.90;;;;;;4985708;28;20385;-74
2023/05/09 09:45:15;;;;;;;39.90;20.55;;;17.60;99.90;;;;;;4984702;28;20054;-74
2023/05/09 09:47:43;;;;;;;40.72;22.58;;;17.50;99.90;;;;;;4968609;28;20047;-73
2023/05/09 09:50:13;;;;;;;44.17;23.83;;;17.50;99.90;;;;;;4983913;28;20050;-74
2023/05/09 09:52:50;;;;;;;41.40;23.08;;;17.50;99.90;;;;;;4968146;28;20133;-74
2023/05/09 09:55:20;;;;;;;50.15;23.25;;;17.60;99.90;;;;;;4985458;28;20105;-73
2023/05/09 09:57:47;;;;;;;38.58;19.52;;;17.50;99.90;;;;;;4983982;28;20085;-73
2023/05/09 10:00:14;;;;;;;41.45;22.35;;;17.50;99.90;;;;;;4968950;28;20054;-73
2023/05/09 10:03:13;;;;;;;41.92;21.45;;;17.30;99.90;;;;;;4985393;28;20129;-74
2023/05/09 10:05:40;;;;;;;42.72;22.77;;;17.20;99.90;;;;;;4976297;28;20066;-73
2023/05/09 10:08:08;;;;;;;41.60;21.30;;;17.20;99.90;;;;;;4983691;28;20089;-74
2023/05/09 10:10:36;;;;;;;39.03;21.30;;;17.10;99.90;;;;;;4983619;28;20133;-73
2023/05/09 10:13:08;;;;;;;35.47;21.58;;;17.20;99.90;;;;;;4986677;28;20362;-75
2023/05/09 10:15:36;;;;;;;36.90;20.70;;;17.20;99.90;;;;;;4968749;28;20081;-74
2023/05/09 10:18:03;;;;;;;39.25;19.40;;;17.10;99.90;;;;;;4985619;28;20054;-74
2023/05/09 10:20:30;;;;;;;40.30;20.95;;;17.20;99.90;;;;;;4983637;28;20381;-74
2023/05/09 10:23:00;;;;;;;34.72;19.98;;;17.10;99.90;;;;;;4967952;28;20169;-74
2023/05/09 10:25:51;;;;;;;35.28;20.35;;;16.90;99.90;;;;;;4970335;28;20489;-74
2023/05/09 10:28:25;;;;;;;39.60;21.58;;;16.90;99.90;;;;;;4984559;28;20050;-75
2023/05/09 10:31:25;;;;;;;37.05;20.48;;;16.90;99.90;;;;;;4985859;28;20480;-73
2023/05/09 10:33:51;;;;;;;41.28;20.92;;;16.90;99.90;;;;;;4986515;28;20053;-75
2023/05/09 10:36:21;;;;;;;40.13;21.10;;;17.00;99.90;;;;;;4984652;28;20546;-73
2023/05/09 10:38:53;;;;;;;39.60;21.40;;;16.90;99.90;;;;;;4984420;28;20045;-74
2023/05/09 10:41:22;;;;;;;36.67;20.65;;;16.90;99.90;;;;;;4981202;28;20265;-74
2023/05/09 10:43:48;;;;;;;38.22;20.50;;;16.80;99.90;;;;;;4985484;28;20843;-73
2023/05/09 10:46:15;;;;;;;37.60;20.33;;;16.80;99.90;;;;;;4982106;28;20050;-75
2023/05/09 10:48:42;;;;;;;38.85;20.50;;;16.70;99.90;;;;;;4978787;28;20081;-75
2023/05/09 10:51:09;;;;;;;41.60;22.00;;;16.70;99.90;;;;;;4984782;28;20182;-74
2023/05/09 10:53:50;;;;;;;41.97;22.77;;;16.70;99.90;;;;;;4984120;28;20051;-74
2023/05/09 10:56:34;;;;;;;36.80;22.17;;;16.80;99.90;;;;;;4967829;28;20394;-75
2023/05/09 10:59:00;;;;;;;48.78;23.15;;;16.90;99.90;;;;;;4996404;28;20100;-74
2023/05/09 11:01:33;;;;;;;56.65;25.33;;;17.10;99.90;;;;;;4985622;28;20070;-73
2023/05/09 11:04:00;;;;;;;44.05;22.67;;;17.10;99.90;;;;;;4989012;28;20054;-74
2023/05/09 11:06:45;;;;;;;48.17;23.13;;;17.10;99.90;;;;;;4986957;28;20485;-74
2023/05/09 11:09:28;;;;;;;46.70;22.73;;;17.10;99.90;;;;;;4987760;28;20042;-74
2023/05/09 11:11:56;;;;;;;44.30;22.20;;;17.20;99.90;;;;;;4971263;28;20042;-74
2023/05/09 11:14:29;;;;;;;47.65;23.27;;;17.20;99.90;;;;;;4981865;28;20069;-74
2023/05/09 11:17:00;;;;;;;51.33;25.17;;;17.10;99.90;;;;;;4971430;28;20046;-75
2023/05/09 11:19:37;;;;;;;47.20;23.73;;;17.20;99.90;;;;;;4986849;28;20045;-74
2023/05/09 11:22:20;;;;;;;53.53;23.98;;;17.20;99.90;;;;;;4987958;28;20038;-74
2023/05/09 11:24:50;;;;;;;51.47;24.17;;;17.20;99.90;;;;;;4987299;28;20048;-75
2023/05/09 11:27:20;;;;;;;46.38;22.55;;;17.20;99.90;;;;;;4954676;28;20054;-74
2023/05/09 11:29:51;;;;;;;44.20;22.25;;;17.40;99.90;;;;;;4970212;28;20097;-74
2023/05/09 11:32:18;;;;;;;48.85;23.08;;;17.50;99.90;;;;;;4983535;28;20090;-74
2023/05/09 11:34:44;;;;;;;49.25;23.48;;;17.60;99.90;;;;;;4969536;28;20046;-74
2023/05/09 11:37:12;;;;;;;48.97;24.58;;;17.80;99.90;;;;;;4986937;28;20112;-75
2023/05/09 11:39:57;;;;;;;49.88;25.15;;;17.80;99.90;;;;;;4971749;28;20084;-75
2023/05/09 11:42:31;;;;;;;50.00;24.77;;;17.80;99.90;;;;;;4986784;28;20046;-75
2023/05/09 11:44:57;;;;;;;49.50;26.15;;;17.80;99.90;;;;;;4983886;28;20062;-75
2023/05/09 11:47:24;;;;;;;52.13;27.60;;;17.90;99.90;;;;;;4986094;28;20034;-74
2023/05/09 11:49:50;;;;;;;43.80;23.88;;;18.00;99.90;;;;;;4984828;28;20038;-74
2023/05/09 11:52:18;;;;;;;60.72;26.55;;;18.10;99.90;;;;;;4985565;28;20085;-74
2023/05/09 11:54:44;;;;;;;42.92;24.25;;;18.10;99.90;;;;;;4984313;28;20101;-74
2023/05/09 11:57:15;;;;;;;51.08;26.40;;;18.10;99.90;;;;;;4970154;28;20050;-73
2023/05/09 11:59:43;;;;;;;50.75;26.42;;;18.10;99.90;;;;;;4955692;28;20046;-74
2023/05/09 12:02:09;;;;;;;51.50;26.98;;;18.30;99.90;;;;;;4987760;28;20085;-74
2023/05/09 12:04:35;;;;;;;51.58;26.80;;;18.40;99.90;;;;;;4970342;28;20460;-74
2023/05/09 12:07:01;;;;;;;52.22;28.23;;;18.50;99.90;;;;;;4986526;28;20046;-73
2023/05/09 12:09:31;;;;;;;54.65;27.55;;;18.50;99.90;;;;;;4988465;28;20413;-74
2023/05/09 12:11:58;;;;;;;59.92;28.77;;;18.40;99.90;;;;;;4970135;28;20517;-75
2023/05/09 12:14:33;;;;;;;52.60;26.25;;;18.30;99.90;;;;;;4971627;28;20062;-74
2023/05/09 12:16:59;;;;;;;52.58;25.65;;;18.30;99.90;;;;;;4961905;28;20370;-74
2023/05/09 12:19:25;;;;;;;51.90;26.95;;;18.20;99.90;;;;;;4985941;28;20046;-74
2023/05/09 12:21:59;;;;;;;52.00;26.75;;;18.20;99.90;;;;;;4987158;28;20042;-75
2023/05/09 12:24:25;;;;;;;48.83;26.88;;;18.20;99.90;;;;;;4985450;28;20487;-74
2023/05/09 12:26:52;;;;;;;53.25;26.33;;;18.30;99.90;;;;;;4969302;28;20459;-74
2023/05/09 12:29:20;;;;;;;45.63;25.15;;;18.30;99.90;;;;;;4985394;28;20432;-74
2023/05/09 12:31:47;;;;;;;53.13;27.30;;;18.30;99.90;;;;;;4985485;28;20042;-74
2023/05/09 12:34:13;;;;;;;55.00;27.83;;;18.30;99.90;;;;;;4985404;28;20092;-74
2023/05/09 12:36:39;;;;;;;55.08;27.75;;;18.40;99.90;;;;;;4986142;28;20081;-74
2023/05/09 12:39:12;;;;;;;49.63;27.50;;;18.50;99.90;;;;;;4984936;28;20505;-74
2023/05/09 12:41:50;;;;;;;50.10;26.75;;;18.50;99.90;;;;;;4984441;28;20354;-74
2023/05/09 12:44:24;;;;;;;52.08;27.92;;;18.50;99.90;;;;;;4980711;28;20046;-73
2023/05/09 12:47:03;;;;;;;53.28;29.77;;;18.60;99.90;;;;;;4969331;28;20050;-74
2023/05/09 12:49:30;;;;;;;54.70;29.95;;;18.70;99.90;;;;;;4981189;28;20054;-73
2023/05/09 12:51:59;;;;;;;50.70;28.92;;;18.70;99.90;;;;;;4986934;28;20089;-74
2023/05/09 12:54:27;;;;;;;48.67;28.52;;;18.70;99.90;;;;;;4971217;28;20477;-74
2023/05/09 12:56:57;;;;;;;55.17;29.33;;;18.70;99.90;;;;;;4985730;28;20104;-74
2023/05/09 12:59:27;;;;;;;55.92;29.75;;;18.60;99.90;;;;;;4945760;28;20048;-74
2023/05/09 13:01:59;;;;;;;54.25;29.98;;;18.50;99.90;;;;;;4986024;28;20077;-74
2023/05/09 13:04:27;;;;;;;60.35;31.08;;;18.50;99.90;;;;;;4977352;28;20573;-73
2023/05/09 13:06:54;;;;;;;61.80;33.13;;;18.50;99.90;;;;;;4985417;28;20104;-73
2023/05/09 13:09:24;;;;;;;65.40;31.52;;;18.40;99.90;;;;;;4978460;28;20081;-73
2023/05/09 13:11:51;;;;;;;62.33;33.58;;;18.30;99.90;;;;;;4985645;28;20077;-74
2023/05/09 13:14:21;;;;;;;60.22;31.60;;;18.30;99.90;;;;;;4961078;28;20129;-74
2023/05/09 13:16:47;;;;;;;64.60;32.83;;;18.20;99.90;;;;;;4984858;28;20042;-73
2023/05/09 13:19:13;;;;;;;60.95;33.20;;;18.10;99.90;;;;;;4977552;28;20046;-73
2023/05/09 13:21:39;;;;;;;65.43;34.58;;;18.10;99.90;;;;;;4984246;28;20085;-74
2023/05/09 13:24:05;;;;;;;57.03;31.15;;;17.90;99.90;;;;;;4978536;28;20513;-72
2023/05/09 13:26:31;;;;;;;65.15;35.10;;;17.90;99.90;;;;;;4968966;28;20544;-72
2023/05/09 13:28:56;;;;;;;68.20;35.83;;;17.80;99.90;;;;;;4969900;28;20060;-72
2023/05/09 13:31:22;;;;;;;67.55;34.97;;;17.70;99.90;;;;;;4953947;28;20045;-74
2023/05/09 13:33:49;;;;;;;71.55;34.67;;;17.70;99.90;;;;;;4937033;28;20050;-70
2023/05/09 13:36:15;;;;;;;70.97;34.47;;;17.60;99.90;;;;;;4982598;28;20507;-70
2023/05/09 13:38:41;;;;;;;75.47;33.20;;;17.50;99.90;;;;;;4987658;28;20128;-69
2023/05/09 13:41:08;;;;;;;69.75;34.13;;;17.40;99.90;;;;;;4987808;28;20058;-70
2023/05/09 13:43:35;;;;;;;69.47;33.42;;;17.20;99.90;;;;;;4970217;28;20042;-70
2023/05/09 13:46:01;;;;;;;60.95;30.80;;;17.20;99.90;;;;;;4987440;28;20547;-71
2023/05/09 13:48:26;;;;;;;55.78;27.50;;;17.20;99.90;;;;;;4970139;28;20061;-71
2023/05/09 13:50:52;;;;;;;27.33;15.88;;;17.30;99.90;;;;;;4988524;28;20080;-71
2023/05/09 13:53:18;;;;;;;27.67;15.05;;;17.20;99.90;;;;;;4988584;28;20097;-71
2023/05/09 13:55:45;;;;;;;29.00;15.15;;;17.30;99.90;;;;;;4984078;28;20041;-71
2023/05/09 13:58:11;;;;;;;26.02;14.30;;;17.20;99.90;;;;;;4988800;28;20473;-71
2023/05/09 14:00:37;;;;;;;20.80;12.45;;;17.20;99.90;;;;;;4986921;28;20054;-71
2023/05/09 14:03:03;;;;;;;24.48;12.10;;;17.20;99.90;;;;;;4973031;28;20535;-71
2023/05/09 14:05:32;;;;;;;19.70;11.98;;;17.20;99.90;;;;;;5004636;28;20097;-71
2023/05/09 14:07:58;;;;;;;;;;;17.10;99.90;;;;;;4987284;28;20056;-71
2023/05/09 14:10:26;;;;;;;32.17;18.05;;;17.10;99.90;;;;;;4987467;28;19922;-71
2023/05/09 14:12:52;;;;;;;34.17;19.90;;;17.20;99.90;;;;;;4986986;28;20133;-71
2023/05/09 14:15:19;;;;;;;33.17;18.95;;;17.20;99.90;;;;;;4973635;28;20124;-71
2023/05/09 14:17:44;;;;;;;34.55;19.55;;;17.30;99.90;;;;;;4971028;28;20034;-71
2023/05/09 14:20:11;;;;;;;45.85;23.33;;;17.20;99.90;;;;;;4973530;28;20050;-70
2023/05/09 14:22:37;;;;;;;45.03;23.92;;;17.20;99.90;;;;;;4972358;28;20082;-71
2023/05/09 14:25:03;;;;;;;40.92;23.27;;;17.20;99.90;;;;;;4971537;28;20125;-71
2023/05/09 14:27:31;;;;;;;50.45;27.42;;;17.10;99.90;;;;;;4971421;28;20466;-71
2023/05/09 14:29:56;;;;;;;51.10;28.23;;;17.20;99.90;;;;;;4984566;28;20066;-71
2023/05/09 14:32:22;;;;;;;52.88;29.80;;;17.20;99.90;;;;;;4970139;28;20061;-71
2023/05/09 14:34:48;;;;;;;54.03;29.23;;;17.10;99.90;;;;;;4985048;28;20077;-71
2023/05/09 14:37:14;;;;;;;55.45;29.33;;;17.10;99.90;;;;;;4971829;28;20038;-71